Startpagina
METAR-TAF:

METAR-TAF

Vliegvelden :

Luchthaven Dakar

Dakar, Senegal

breedte: 14-44N, lengte: 017-30W, hoogte: 27 m

Actueel weer

Dit bericht is 1 uur en het 8 minuten geleden gemaakt, om 11:00 UTC
Wind 14 kt uit het noorden
Temperatuur 23°C
Vochtigheid 78%
Druk 1013 hPa
Zicht 10 km of meer
geen wolken onder 1500 m en geen cumulonimbus

METAR: GOOY 201100Z 36014KT CAVOK 23/19 Q1013

Tijdstip: 12:08 (12:08 UTC)

Verwachting

Dit bericht is 38 minuten geleden gemaakt, om 11:30 UTC
Verwachting geldig van 20 om 12 UTC tot 21 om 18 UTC
Wind 10 kt uit het noordnoordwesten
Zicht 10 km of meer
Verspreide wolken op 1000 ft

TAF: GOOY 201130Z 2012/2118 34010KT 9999 SCT010

Waarnemingen en weersverwachtingen van meer dan 4000 vliegvelden (METAR en TAF).

De beschikbare stations zijn de gele en rode punten op de kaart.

Ga met uw muis naar het station om de naam te zien.

Klik dan om waarnemingen en weersverwachtingen te zien.

kaart wijzigen: klik op de groene knoppen met een zwart kruis om in te zoomen, op de groene knop met een streepje om uit te zoomen of op de groene pijlen voor aangrenzende kaarten.


METAR-TAF: